createdAt,value
2023-04-03T00:00:47.148Z,101125.66
2023-04-03T00:03:15.116Z,101122.69
2023-04-03T00:05:44.268Z,101126.56
2023-04-03T00:08:11.942Z,101125.22
2023-04-03T00:10:40.054Z,101122.38
2023-04-03T00:13:09.373Z,101126.63
2023-04-03T00:15:39.045Z,101126.34
2023-04-03T00:18:07.444Z,101124.25
2023-04-03T00:20:36.110Z,101131.47
2023-04-03T00:23:05.350Z,101128.38
2023-04-03T00:25:33.073Z,101130.69
2023-04-03T00:28:01.003Z,101134.22
2023-04-03T00:30:28.567Z,101131.50
2023-04-03T00:32:56.470Z,101136.69
2023-04-03T00:35:25.373Z,101137.34
2023-04-03T00:37:55.301Z,101135.28
2023-04-03T00:40:27.586Z,101139.72
2023-04-03T00:42:59.124Z,101136.97
2023-04-03T00:45:33.287Z,101136.94
2023-04-03T00:48:03.095Z,101138.41
2023-04-03T00:50:31.654Z,101145.19
2023-04-03T00:53:00.537Z,101138.28
2023-04-03T00:55:29.697Z,101144.16
2023-04-03T00:57:58.369Z,101138.31
2023-04-03T01:00:27.080Z,101142.84
2023-04-03T01:02:54.702Z,101139.16
2023-04-03T01:05:23.839Z,101140.47
2023-04-03T01:07:53.294Z,101142.53
2023-04-03T01:10:22.635Z,101145.97
2023-04-03T01:12:52.377Z,101140.28
2023-04-03T01:15:23.753Z,101140.88
2023-04-03T01:17:53.500Z,101140.69
2023-04-03T01:21:02.604Z,101151.16
2023-04-03T01:23:41.127Z,101145.88
2023-04-03T01:26:09.942Z,101145.63
2023-04-03T01:28:39.327Z,101141.56
2023-04-03T01:31:16.549Z,101139.34
2023-04-03T01:33:46.465Z,101135.84
2023-04-03T01:36:19.582Z,101136.03
2023-04-03T01:38:47.219Z,101136.72
2023-04-03T01:41:16.584Z,101128.72
2023-04-03T01:43:44.540Z,101136.94
2023-04-03T01:46:12.493Z,101140.41
2023-04-03T01:48:40.924Z,101128.47
2023-04-03T01:51:09.844Z,101131.97
2023-04-03T01:53:37.618Z,101134.25
2023-04-03T01:56:05.580Z,101139.13
2023-04-03T01:58:33.374Z,101140.00
2023-04-03T02:01:01.367Z,101149.22
2023-04-03T02:03:29.055Z,101149.47
2023-04-03T02:05:57.176Z,101146.56
2023-04-03T02:08:26.295Z,101140.97
2023-04-03T02:10:53.993Z,101144.63
2023-04-03T02:13:21.742Z,101137.81
2023-04-03T02:15:49.585Z,101144.91
2023-04-03T02:18:17.596Z,101145.31
2023-04-03T02:20:45.821Z,101138.06
2023-04-03T02:23:13.540Z,101141.88
2023-04-03T02:25:42.687Z,101147.03
2023-04-03T02:28:10.431Z,101149.13
2023-04-03T02:30:38.293Z,101151.19
2023-04-03T02:33:06.008Z,101157.19
2023-04-03T02:35:33.600Z,101151.13
2023-04-03T02:38:01.198Z,101151.91
2023-04-03T02:40:28.880Z,101154.28
2023-04-03T02:42:57.873Z,101149.75
2023-04-03T02:45:25.613Z,101150.22
2023-04-03T02:47:53.293Z,101155.41
2023-04-03T02:50:20.933Z,101150.53
2023-04-03T02:52:48.568Z,101156.63
2023-04-03T02:55:17.129Z,101154.44
2023-04-03T02:57:44.719Z,101154.28
2023-04-03T03:00:15.339Z,101148.84
2023-04-03T03:02:43.161Z,101152.81
2023-04-03T03:05:12.207Z,101155.06
2023-04-03T03:07:39.860Z,101148.78
2023-04-03T03:10:08.474Z,101151.91
2023-04-03T03:12:36.141Z,101151.97
2023-04-03T03:15:03.703Z,101148.22
2023-04-03T03:17:32.982Z,101151.06
2023-04-03T03:20:00.779Z,101148.78
2023-04-03T03:22:32.908Z,101153.72
2023-04-03T03:25:00.614Z,101146.13
2023-04-03T03:27:28.252Z,101143.88
2023-04-03T03:29:56.608Z,101146.84
2023-04-03T03:32:24.359Z,101138.75
2023-04-03T03:34:53.314Z,101144.78
2023-04-03T03:37:21.056Z,101145.63
2023-04-03T03:39:48.660Z,101144.19
2023-04-03T03:42:16.564Z,101155.69
2023-04-03T03:44:44.132Z,101157.59
2023-04-03T03:47:12.021Z,101153.84
2023-04-03T03:49:39.798Z,101147.25
2023-04-03T03:52:11.389Z,101160.78
2023-04-03T03:54:39.136Z,101167.44
2023-04-03T03:57:06.850Z,101167.75
2023-04-03T03:59:34.623Z,101167.03
2023-04-03T04:02:02.332Z,101169.34
2023-04-03T04:04:30.101Z,101176.72
2023-04-03T04:06:57.745Z,101172.16
2023-04-03T04:09:26.757Z,101177.25
2023-04-03T04:11:54.696Z,101170.66
2023-04-03T04:14:22.459Z,101169.03
2023-04-03T04:16:50.752Z,101171.59
2023-04-03T04:19:18.361Z,101176.03
2023-04-03T04:21:46.484Z,101176.41
2023-04-03T04:24:14.142Z,101157.78
2023-04-03T04:26:43.104Z,101164.03
2023-04-03T04:29:11.030Z,101169.75
2023-04-03T04:31:38.737Z,101168.03
2023-04-03T04:34:06.411Z,101170.31
2023-04-03T04:36:34.404Z,101169.38
2023-04-03T04:39:02.052Z,101175.16
2023-04-03T04:41:30.141Z,101169.50
2023-04-03T04:43:59.167Z,101175.91
2023-04-03T04:46:26.960Z,101175.03
2023-04-03T04:48:54.972Z,101180.47
2023-04-03T04:51:22.703Z,101186.03
2023-04-03T04:53:50.284Z,101182.53
2023-04-03T04:56:17.907Z,101189.25
2023-04-03T04:58:45.714Z,101180.72
2023-04-03T05:01:14.724Z,101185.44
2023-04-03T05:03:42.516Z,101178.91
2023-04-03T05:06:10.354Z,101192.03
2023-04-03T05:08:38.057Z,101187.00
2023-04-03T05:11:05.828Z,101194.56
2023-04-03T05:13:33.427Z,101195.53
2023-04-03T05:16:01.040Z,101199.66
2023-04-03T05:18:30.326Z,101208.56
2023-04-03T05:20:58.745Z,101213.97
2023-04-03T05:23:26.554Z,101202.28
2023-04-03T05:25:55.041Z,101218.56
2023-04-03T05:28:23.165Z,101222.44
2023-04-03T05:30:56.163Z,101235.81
2023-04-03T05:33:23.781Z,101223.72
2023-04-03T05:35:52.695Z,101233.25
2023-04-03T05:38:20.912Z,101231.16
2023-04-03T05:40:49.066Z,101228.88
2023-04-03T05:43:16.792Z,101230.13
2023-04-03T05:45:46.872Z,101242.63
2023-04-03T05:48:14.864Z,101244.28
2023-04-03T05:50:43.412Z,101233.06
2023-04-03T05:53:24.349Z,101245.03
2023-04-03T05:55:52.173Z,101243.88
2023-04-03T05:58:19.943Z,101248.25
2023-04-03T06:00:47.937Z,101241.72
2023-04-03T06:03:15.628Z,101255.47
2023-04-03T06:05:43.884Z,101261.56
2023-04-03T06:08:13.506Z,101257.06
2023-04-03T06:10:41.246Z,101256.53
2023-04-03T06:13:09.109Z,101260.13
2023-04-03T06:15:36.887Z,101269.88
2023-04-03T06:18:04.766Z,101265.28
2023-04-03T06:20:33.065Z,101272.84
2023-04-03T06:23:01.039Z,101273.13
2023-04-03T06:25:30.305Z,101272.16
2023-04-03T06:27:57.969Z,101271.88
2023-04-03T06:30:25.648Z,101270.13
2023-04-03T06:32:53.952Z,101268.56
2023-04-03T06:35:21.988Z,101275.41
2023-04-03T06:37:49.840Z,101274.38
2023-04-03T06:40:22.833Z,101287.91
2023-04-03T06:42:52.125Z,101291.63
2023-04-03T06:45:20.399Z,101281.03
2023-04-03T06:47:47.998Z,101273.97
2023-04-03T06:50:16.220Z,101279.50
2023-04-03T06:52:44.039Z,101274.03
2023-04-03T06:55:12.149Z,101282.53
2023-04-03T06:57:39.801Z,101280.69
2023-04-03T07:00:22.153Z,101278.75
2023-04-03T07:02:49.813Z,101270.81
2023-04-03T07:05:17.585Z,101281.97
2023-04-03T07:07:45.416Z,101282.00
2023-04-03T07:10:13.429Z,101291.88
2023-04-03T07:12:41.427Z,101289.34
2023-04-03T07:15:13.195Z,101281.16
2023-04-03T07:18:03.134Z,101286.41
2023-04-03T07:20:50.957Z,101278.97
2023-04-03T07:23:22.188Z,101282.63
2023-04-03T07:25:52.401Z,101289.72
2023-04-03T07:28:21.380Z,101279.38
2023-04-03T07:30:52.446Z,101289.03
2023-04-03T07:33:22.125Z,101307.25
2023-04-03T07:35:49.849Z,101299.16
2023-04-03T07:38:18.304Z,101306.47
2023-04-03T07:40:48.239Z,101302.84
2023-04-03T07:43:16.521Z,101309.34
2023-04-03T07:45:46.058Z,101296.91
2023-04-03T07:48:17.983Z,101308.88
2023-04-03T07:50:47.252Z,101308.34
2023-04-03T07:53:15.201Z,101299.50
2023-04-03T07:55:44.716Z,101312.78
2023-04-03T07:58:12.796Z,101315.44
2023-04-03T08:00:41.170Z,101302.19
2023-04-03T08:03:11.255Z,101274.72
2023-04-03T08:05:42.399Z,101293.69
2023-04-03T08:08:11.545Z,101299.59
2023-04-03T08:10:39.442Z,101326.47
2023-04-03T08:13:08.045Z,101308.22
2023-04-03T08:15:36.265Z,101307.84
2023-04-03T08:18:04.656Z,101302.41
2023-04-03T08:20:32.432Z,101295.28
2023-04-03T08:23:01.410Z,101286.47
2023-04-03T08:25:30.508Z,101307.69
2023-04-03T08:27:58.354Z,101298.59
2023-04-03T08:30:26.214Z,101289.00
2023-04-03T08:32:53.888Z,101301.69
2023-04-03T08:35:24.102Z,101293.81
2023-04-03T08:37:51.759Z,101286.50
2023-04-03T08:40:21.202Z,101293.06
2023-04-03T08:42:59.505Z,101290.72
2023-04-03T08:45:36.111Z,101294.69
2023-04-03T08:48:08.507Z,101274.63
2023-04-03T08:50:41.541Z,101289.41
2023-04-03T08:53:16.337Z,101290.25
2023-04-03T08:55:49.938Z,101288.66
2023-04-03T08:58:20.213Z,101282.81
2023-04-03T09:00:50.864Z,101284.59
2023-04-03T09:03:21.858Z,101292.22
2023-04-03T09:05:55.151Z,101287.03
2023-04-03T09:08:29.402Z,101291.88
2023-04-03T09:11:11.098Z,101278.72
2023-04-03T09:13:49.406Z,101297.88
2023-04-03T09:16:25.030Z,101290.41
2023-04-03T09:19:00.358Z,101299.31
2023-04-03T09:21:34.489Z,101299.88
2023-04-03T09:24:03.609Z,101303.66
2023-04-03T09:26:37.589Z,101299.31
2023-04-03T09:29:08.556Z,101294.28
2023-04-03T09:31:41.882Z,101305.19
2023-04-03T09:34:21.589Z,101305.66
2023-04-03T09:36:51.143Z,101291.91
2023-04-03T09:39:21.291Z,101298.38
2023-04-03T09:42:02.232Z,101296.66
2023-04-03T09:44:32.234Z,101274.19
2023-04-03T09:47:01.270Z,101299.19
2023-04-03T09:49:29.045Z,101284.44
2023-04-03T09:51:57.220Z,101292.03
2023-04-03T09:54:38.265Z,101285.16
2023-04-03T09:57:15.367Z,101302.97
2023-04-03T09:59:46.974Z,101300.31
2023-04-03T10:02:30.489Z,101282.50
2023-04-03T10:05:08.922Z,101289.50
2023-04-03T10:07:41.256Z,101298.75
2023-04-03T10:10:26.355Z,101289.34
2023-04-03T10:13:10.582Z,101282.09
2023-04-03T10:15:45.846Z,101290.94
2023-04-03T10:18:31.431Z,101283.50
2023-04-03T10:21:06.143Z,101271.75
2023-04-03T10:23:42.874Z,101276.66
2023-04-03T10:26:19.152Z,101271.94
2023-04-03T10:28:56.741Z,101293.69
2023-04-03T10:31:31.786Z,101273.25
2023-04-03T10:34:07.250Z,101281.38
2023-04-03T10:36:44.544Z,101271.34
2023-04-03T10:39:24.689Z,101281.63
2023-04-03T10:42:16.036Z,101283.41
2023-04-03T10:45:09.429Z,101287.63
2023-04-03T10:47:45.844Z,101289.09
2023-04-03T10:50:28.456Z,101277.38
2023-04-03T10:53:03.770Z,101267.63
2023-04-03T10:55:37.856Z,101273.66
2023-04-03T10:58:08.032Z,101277.03
2023-04-03T11:00:44.683Z,101257.78
2023-04-03T11:03:19.149Z,101249.13
2023-04-03T11:05:50.345Z,101251.34
2023-04-03T11:08:30.683Z,101246.22
2023-04-03T11:11:01.885Z,101249.97
2023-04-03T11:13:35.526Z,101244.63
2023-04-03T11:16:07.005Z,101234.31
2023-04-03T11:18:39.228Z,101237.94
2023-04-03T11:21:14.735Z,101232.25
2023-04-03T11:23:49.590Z,101226.69
2023-04-03T11:26:19.334Z,101221.06
2023-04-03T11:28:47.409Z,101238.28
2023-04-03T11:31:33.229Z,101245.13
2023-04-03T11:34:12.855Z,101214.44
2023-04-03T11:36:45.355Z,101216.50
2023-04-03T11:39:23.568Z,101228.91
2023-04-03T11:41:53.368Z,101225.44
2023-04-03T11:44:35.240Z,101233.13
2023-04-03T11:47:05.416Z,101224.13
2023-04-03T11:50:03.479Z,101224.28
2023-04-03T11:52:58.340Z,101206.97
2023-04-03T11:55:56.868Z,101214.94
2023-04-03T11:58:26.052Z,101210.53
2023-04-03T12:01:05.916Z,101208.56
2023-04-03T12:04:09.605Z,101194.66
2023-04-03T12:07:03.908Z,101202.31
2023-04-03T12:09:36.635Z,101193.91
2023-04-03T12:12:37.262Z,101203.94
2023-04-03T12:15:50.921Z,101204.41
2023-04-03T12:18:57.543Z,101198.91
2023-04-03T12:22:08.346Z,101190.91
2023-04-03T12:24:41.380Z,101186.13
2023-04-03T12:27:23.751Z,101174.84
2023-04-03T12:29:58.141Z,101179.19
2023-04-03T12:32:40.018Z,101182.31
2023-04-03T12:35:17.414Z,101183.00
2023-04-03T12:38:06.739Z,101188.19
2023-04-03T12:40:44.082Z,101173.16
2023-04-03T12:43:31.973Z,101177.72
2023-04-03T12:46:03.888Z,101182.38
2023-04-03T12:48:35.695Z,101174.44
2023-04-03T12:51:04.879Z,101178.44
2023-04-03T12:53:35.668Z,101174.19
2023-04-03T12:56:24.257Z,101159.44
2023-04-03T12:58:53.061Z,101150.03
2023-04-03T13:01:23.861Z,101144.16
2023-04-03T13:03:55.114Z,101147.09
2023-04-03T13:06:25.565Z,101148.44
2023-04-03T13:08:55.637Z,101152.28
2023-04-03T13:11:26.219Z,101151.59
2023-04-03T13:13:58.618Z,101131.91
2023-04-03T13:16:26.465Z,101148.25
2023-04-03T13:18:55.615Z,101152.47
2023-04-03T13:21:26.576Z,101153.47
2023-04-03T13:24:11.562Z,101147.59
2023-04-03T13:26:45.362Z,101174.81
2023-04-03T13:29:31.116Z,101139.41
2023-04-03T13:32:01.423Z,101130.59
2023-04-03T13:34:32.512Z,101141.84
2023-04-03T13:37:02.362Z,101141.69
2023-04-03T13:39:32.110Z,101133.31
2023-04-03T13:42:03.702Z,101145.75
2023-04-03T13:44:35.350Z,101137.75
2023-04-03T13:47:17.414Z,101136.13
2023-04-03T13:49:47.071Z,101131.25
2023-04-03T13:52:26.082Z,101139.44
2023-04-03T13:54:56.454Z,101134.22
2023-04-03T13:57:25.976Z,101124.84
2023-04-03T13:59:54.123Z,101124.00
2023-04-03T14:02:24.767Z,101123.47
2023-04-03T14:04:57.390Z,101123.16
2023-04-03T14:07:26.250Z,101113.78
2023-04-03T14:09:54.481Z,101111.50
2023-04-03T14:12:31.755Z,101115.69
2023-04-03T14:15:01.899Z,101108.03
2023-04-03T14:17:30.825Z,101104.97
2023-04-03T14:19:59.847Z,101108.94
2023-04-03T14:22:30.312Z,101115.25
2023-04-03T14:24:58.353Z,101108.91
2023-04-03T14:27:30.417Z,101118.00
2023-04-03T14:29:59.908Z,101111.16
2023-04-03T14:32:28.627Z,101103.78
2023-04-03T14:34:58.008Z,101099.50
2023-04-03T14:37:28.815Z,101111.78
2023-04-03T14:39:57.756Z,101089.72
2023-04-03T14:42:28.120Z,101087.91
2023-04-03T14:44:58.838Z,101097.59
2023-04-03T14:47:32.920Z,101090.88
2023-04-03T14:50:02.138Z,101089.66
2023-04-03T14:52:32.067Z,101109.75
2023-04-03T14:55:09.374Z,101098.22
2023-04-03T14:57:40.959Z,101090.34
2023-04-03T15:00:17.237Z,101076.63
2023-04-03T15:02:46.005Z,101093.53
2023-04-03T15:05:17.201Z,101078.59
2023-04-03T15:07:49.214Z,101097.44
2023-04-03T15:10:20.409Z,101088.28
2023-04-03T15:12:49.384Z,101072.19
2023-04-03T15:15:21.247Z,101084.41
2023-04-03T15:17:54.637Z,101104.91
2023-04-03T15:20:25.722Z,101095.47
2023-04-03T15:22:53.456Z,101085.47
2023-04-03T15:25:21.261Z,101089.91
2023-04-03T15:27:48.980Z,101085.69
2023-04-03T15:30:20.950Z,101085.03
2023-04-03T15:32:50.406Z,101093.94
2023-04-03T15:35:18.486Z,101075.91
2023-04-03T15:37:46.624Z,101081.13
2023-04-03T15:40:27.176Z,101088.38
2023-04-03T15:42:55.004Z,101084.63
2023-04-03T15:45:24.550Z,101087.06
2023-04-03T15:47:52.861Z,101079.75
2023-04-03T15:50:23.122Z,101108.50
2023-04-03T15:52:54.931Z,101086.53
2023-04-03T15:55:23.227Z,101083.25
2023-04-03T15:57:51.040Z,101075.69
2023-04-03T16:00:19.217Z,101089.81
2023-04-03T16:02:52.849Z,101081.03
2023-04-03T16:05:21.057Z,101082.09
2023-04-03T16:07:49.180Z,101086.22
2023-04-03T16:10:20.842Z,101076.47
2023-04-03T16:12:49.949Z,101088.16
2023-04-03T16:15:17.530Z,101084.75
2023-04-03T16:17:45.580Z,101075.72
2023-04-03T16:20:15.492Z,101083.00
2023-04-03T16:22:43.909Z,101091.38
2023-04-03T16:25:12.914Z,101079.34
2023-04-03T16:27:40.957Z,101082.69
2023-04-03T16:30:09.860Z,101093.34
2023-04-03T16:32:39.196Z,101084.19
2023-04-03T16:35:25.421Z,101085.19
2023-04-03T16:37:54.345Z,101093.50
2023-04-03T16:40:22.125Z,101088.84
2023-04-03T16:42:50.015Z,101085.19
2023-04-03T16:45:17.694Z,101081.84
2023-04-03T16:47:45.602Z,101087.22
2023-04-03T16:50:13.436Z,101087.00
2023-04-03T16:52:41.284Z,101079.75
2023-04-03T16:55:10.925Z,101078.59
2023-04-03T16:57:38.558Z,101076.66
2023-04-03T17:00:08.218Z,101089.47
2023-04-03T17:02:36.041Z,101088.81
2023-04-03T17:05:04.106Z,101096.72
2023-04-03T17:07:31.816Z,101104.00
2023-04-03T17:09:59.907Z,101093.03
2023-04-03T17:12:28.833Z,101092.91
2023-04-03T17:14:56.471Z,101102.91
2023-04-03T17:17:27.883Z,101106.69
2023-04-03T17:19:56.048Z,101105.88
2023-04-03T17:22:24.168Z,101105.78
2023-04-03T17:24:51.726Z,101112.50
2023-04-03T17:27:19.410Z,101106.06
2023-04-03T17:29:48.421Z,101117.00
2023-04-03T17:32:16.436Z,101119.97
2023-04-03T17:34:44.411Z,101116.47
2023-04-03T17:37:14.576Z,101121.94
2023-04-03T17:39:42.653Z,101114.81
2023-04-03T17:42:11.679Z,101116.06
2023-04-03T17:44:39.403Z,101127.00
2023-04-03T17:47:08.457Z,101133.47
2023-04-03T17:49:36.033Z,101134.56
2023-04-03T17:52:03.713Z,101146.78
2023-04-03T17:54:31.477Z,101138.94
2023-04-03T17:56:59.098Z,101140.31
2023-04-03T17:59:28.221Z,101138.63
2023-04-03T18:01:56.808Z,101144.50
2023-04-03T18:04:26.218Z,101147.25
2023-04-03T18:06:56.751Z,101147.38
2023-04-03T18:09:28.414Z,101154.13
2023-04-03T18:11:57.310Z,101149.50
2023-04-03T18:14:28.339Z,101161.50
2023-04-03T18:16:57.413Z,101153.25
2023-04-03T18:19:29.794Z,101158.97
2023-04-03T18:22:02.627Z,101160.88
2023-04-03T18:24:32.946Z,101164.81
2023-04-03T18:27:03.277Z,101161.41
2023-04-03T18:29:34.761Z,101158.88
2023-04-03T18:32:07.117Z,101161.38
2023-04-03T18:34:36.649Z,101165.88
2023-04-03T18:37:05.899Z,101158.13
2023-04-03T18:39:33.976Z,101164.38
2023-04-03T18:42:06.382Z,101162.75
2023-04-03T18:44:35.745Z,101170.16
2023-04-03T18:47:03.620Z,101165.34
2023-04-03T18:49:34.925Z,101166.25
2023-04-03T18:52:04.606Z,101169.75
2023-04-03T18:54:32.674Z,101176.38
2023-04-03T18:57:01.230Z,101176.25
2023-04-03T18:59:28.947Z,101181.00
2023-04-03T19:01:57.890Z,101181.84
2023-04-03T19:04:27.336Z,101180.59
2023-04-03T19:06:55.103Z,101190.50
2023-04-03T19:09:25.810Z,101189.94
2023-04-03T19:11:53.565Z,101202.25
2023-04-03T19:14:21.466Z,101197.84
2023-04-03T19:16:49.221Z,101206.19
2023-04-03T19:19:17.260Z,101206.84
2023-04-03T19:21:47.268Z,101209.56
2023-04-03T19:24:17.631Z,101213.91
2023-04-03T19:26:51.836Z,101218.88
2023-04-03T19:29:19.639Z,101212.28
2023-04-03T19:31:47.654Z,101217.66
2023-04-03T19:34:15.596Z,101221.47
2023-04-03T19:36:44.120Z,101226.50
2023-04-03T19:39:13.468Z,101223.28
2023-04-03T19:41:45.555Z,101223.19
2023-04-03T19:44:14.703Z,101232.38
2023-04-03T19:46:50.604Z,101232.16
2023-04-03T19:49:19.187Z,101229.38
2023-04-03T19:51:46.970Z,101236.91
2023-04-03T19:54:14.690Z,101229.91
2023-04-03T19:56:42.321Z,101232.91
2023-04-03T19:59:13.852Z,101231.63
2023-04-03T20:01:47.397Z,101237.91
2023-04-03T20:04:16.403Z,101228.63
2023-04-03T20:06:44.142Z,101236.13
2023-04-03T20:09:11.834Z,101232.84
2023-04-03T20:11:41.082Z,101240.69
2023-04-03T20:14:09.804Z,101243.13
2023-04-03T20:16:38.138Z,101241.19
2023-04-03T20:19:08.060Z,101244.81
2023-04-03T20:21:36.711Z,101243.59
2023-04-03T20:24:07.267Z,101237.59
2023-04-03T20:26:37.505Z,101251.44
2023-04-03T20:29:05.710Z,101249.28
2023-04-03T20:31:33.737Z,101238.06
2023-04-03T20:34:01.991Z,101247.97
2023-04-03T20:36:31.772Z,101236.50
2023-04-03T20:38:59.670Z,101243.88
2023-04-03T20:41:27.553Z,101239.53
2023-04-03T20:43:55.245Z,101241.44
2023-04-03T20:46:38.166Z,101251.34
2023-04-03T20:49:11.433Z,101251.22
2023-04-03T20:51:42.172Z,101251.47
2023-04-03T20:54:11.511Z,101249.06
2023-04-03T20:56:39.178Z,101249.78
2023-04-03T20:59:08.026Z,101256.88
2023-04-03T21:01:38.153Z,101252.03
2023-04-03T21:04:12.734Z,101249.75
2023-04-03T21:07:18.353Z,101256.75
2023-04-03T21:10:24.029Z,101244.09
2023-04-03T21:13:29.225Z,101246.84
2023-04-03T21:15:59.596Z,101256.75
2023-04-03T21:18:52.331Z,101243.81
2023-04-03T21:21:22.349Z,101244.31
2023-04-03T21:23:51.122Z,101247.69
2023-04-03T21:26:21.465Z,101245.75
2023-04-03T21:28:51.427Z,101245.75
2023-04-03T21:31:19.147Z,101251.88
2023-04-03T21:33:48.122Z,101250.03
2023-04-03T21:36:16.222Z,101248.31
2023-04-03T21:38:47.590Z,101251.94
2023-04-03T21:41:15.706Z,101248.94
2023-04-03T21:43:43.302Z,101246.06
2023-04-03T21:46:11.045Z,101241.59
2023-04-03T21:48:39.228Z,101243.41
2023-04-03T21:51:10.405Z,101250.97
2023-04-03T21:53:38.290Z,101239.66
2023-04-03T21:56:10.420Z,101247.72
2023-04-03T21:58:39.047Z,101243.50
2023-04-03T22:01:11.015Z,101243.91
2023-04-03T22:03:38.859Z,101240.50
2023-04-03T22:06:12.661Z,101239.97
2023-04-03T22:08:40.691Z,101236.66
2023-04-03T22:11:09.869Z,101241.47
2023-04-03T22:13:38.069Z,101234.38
2023-04-03T22:16:06.100Z,101241.50
2023-04-03T22:18:34.441Z,101239.88
2023-04-03T22:21:02.223Z,101242.72
2023-04-03T22:23:31.733Z,101236.31
2023-04-03T22:26:00.384Z,101242.34
2023-04-03T22:28:28.523Z,101239.59
2023-04-03T22:30:57.032Z,101239.34
2023-04-03T22:33:24.645Z,101243.91
2023-04-03T22:35:52.864Z,101241.00
2023-04-03T22:38:20.505Z,101253.06
2023-04-03T22:40:58.555Z,101251.22
2023-04-03T22:43:26.473Z,101251.13
2023-04-03T22:45:54.613Z,101253.56
2023-04-03T22:48:22.809Z,101257.97
2023-04-03T22:50:51.380Z,101250.03
2023-04-03T22:53:19.626Z,101253.09
2023-04-03T22:55:56.436Z,101256.19
2023-04-03T22:58:26.213Z,101247.81
2023-04-03T23:00:54.835Z,101247.00
2023-04-03T23:03:23.406Z,101253.16
2023-04-03T23:05:52.440Z,101250.53
2023-04-03T23:08:20.379Z,101247.69
2023-04-03T23:10:48.422Z,101247.00
2023-04-03T23:13:17.698Z,101253.03
2023-04-03T23:15:45.269Z,101247.44
2023-04-03T23:18:13.609Z,101254.22
2023-04-03T23:20:41.448Z,101254.41
2023-04-03T23:23:09.271Z,101259.06
2023-04-03T23:25:37.699Z,101266.50
2023-04-03T23:28:05.298Z,101262.81
2023-04-03T23:30:34.194Z,101260.47
2023-04-03T23:33:01.838Z,101255.84
2023-04-03T23:35:30.374Z,101264.63
2023-04-03T23:37:57.959Z,101259.97
2023-04-03T23:40:25.615Z,101273.38
2023-04-03T23:42:53.249Z,101270.94
2023-04-03T23:45:20.821Z,101262.09
2023-04-03T23:47:50.022Z,101266.53
2023-04-03T23:50:17.756Z,101259.91
2023-04-03T23:52:45.585Z,101258.22
2023-04-03T23:55:15.968Z,101265.91
2023-04-03T23:57:43.538Z,101255.75
